Time;durP1;ratioP1;P1;durP2;ratioP2;P2;SDS_P1;SDS_P2;PMS_P1;PMS_P2;Temp;Humidity;BMP_temperature;BMP_pressure;BME280_temperature;BME280_humidity;BME280_pressure;Samples;Min_cycle;Max_cycle;Signal;HPM_P1;HPM_P2
2023/07/10 00:02:09;;;;;;;9.85;4.85;;;24.30;99.90;;;;;;5071418;28;20391;-72
2023/07/10 00:04:35;;;;;;;11.60;5.20;;;24.30;99.90;;;;;;5072781;28;20418;-72
2023/07/10 00:07:01;;;;;;;11.25;4.60;;;24.30;99.90;;;;;;5069713;28;20491;-72
2023/07/10 00:09:26;;;;;;;10.80;4.87;;;24.20;99.90;;;;;;5070321;28;21053;-72
2023/07/10 00:11:52;;;;;;;10.37;4.60;;;24.20;99.90;;;;;;5070288;28;20387;-72
2023/07/10 00:14:21;;;;;;;13.87;4.90;;;24.10;99.90;;;;;;5069486;28;20426;-71
2023/07/10 00:16:49;;;;;;;11.35;4.70;;;24.20;99.90;;;;;;5068007;28;20760;-71
2023/07/10 00:19:15;;;;;;;10.00;4.53;;;24.40;99.90;;;;;;5070217;28;20892;-72
2023/07/10 00:21:40;;;;;;;10.43;4.90;;;24.60;99.90;;;;;;5069802;28;20395;-72
2023/07/10 00:24:07;;;;;;;11.20;5.13;;;24.70;99.90;;;;;;5070175;28;20398;-72
2023/07/10 00:26:33;;;;;;;10.43;5.00;;;24.70;99.90;;;;;;5069874;28;20474;-71
2023/07/10 00:29:04;;;;;;;12.27;4.80;;;24.70;99.90;;;;;;5069922;28;20800;-72
2023/07/10 00:31:30;;;;;;;12.13;4.60;;;24.60;99.90;;;;;;5067962;28;20745;-72
2023/07/10 00:33:55;;;;;;;10.57;4.23;;;24.70;99.90;;;;;;5069661;28;20416;-71
2023/07/10 00:36:27;;;;;;;8.50;4.40;;;24.70;99.90;;;;;;5069020;28;20754;-72
2023/07/10 00:38:52;;;;;;;10.27;4.90;;;24.70;99.90;;;;;;5069464;28;20475;-72
2023/07/10 00:41:18;;;;;;;12.87;4.93;;;24.60;99.90;;;;;;5069810;28;20482;-71
2023/07/10 00:43:52;;;;;;;9.32;4.30;;;24.40;99.90;;;;;;5070127;28;20379;-71
2023/07/10 00:46:27;;;;;;;8.63;4.60;;;24.30;99.90;;;;;;5069832;28;20807;-72
2023/07/10 00:48:59;;;;;;;11.48;4.80;;;24.20;99.90;;;;;;5067958;28;20392;-72
2023/07/10 00:51:30;;;;;;;12.18;4.90;;;24.30;99.90;;;;;;5066410;28;20422;-72
2023/07/10 00:53:57;;;;;;;9.90;4.70;;;24.30;99.90;;;;;;5069074;28;20415;-72
2023/07/10 00:56:28;;;;;;;11.43;4.80;;;24.20;99.90;;;;;;5069050;28;20437;-72
2023/07/10 00:58:53;;;;;;;10.43;4.85;;;24.20;99.90;;;;;;5069375;28;20384;-72
2023/07/10 01:01:23;;;;;;;11.80;4.77;;;24.00;99.90;;;;;;5070130;28;20402;-71
2023/07/10 01:03:50;;;;;;;9.50;4.40;;;23.90;1.00;;;;;;5066868;28;20400;-72
2023/07/10 01:06:30;;;;;;;11.27;4.88;;;23.80;1.00;;;;;;5068060;28;20411;-72
2023/07/10 01:08:59;;;;;;;11.00;4.70;;;23.90;1.00;;;;;;5067599;28;20399;-71
2023/07/10 01:11:25;;;;;;;10.98;4.90;;;23.80;1.00;;;;;;5066232;28;20399;-72
2023/07/10 01:13:53;;;;;;;10.83;4.30;;;23.70;1.00;;;;;;5068774;28;20423;-71
2023/07/10 01:16:20;;;;;;;10.73;5.10;;;23.60;1.00;;;;;;5069334;28;20384;-71
2023/07/10 01:18:48;;;;;;;9.77;4.80;;;23.60;1.00;;;;;;5066220;28;20383;-71
2023/07/10 01:21:30;;;;;;;11.23;4.93;;;23.70;1.00;;;;;;5068819;28;20399;-72
2023/07/10 01:23:57;;;;;;;11.05;4.70;;;23.90;1.00;;;;;;5067418;28;20412;-72
2023/07/10 01:26:24;;;;;;;11.20;5.10;;;24.10;1.00;;;;;;5068425;28;20900;-71
2023/07/10 01:28:51;;;;;;;10.07;5.20;;;24.30;1.00;;;;;;5068611;28;20475;-71
2023/07/10 01:31:19;;;;;;;11.30;4.90;;;24.50;1.00;;;;;;5068892;28;20758;-71
2023/07/10 01:33:53;;;;;;;9.88;4.75;;;24.60;1.00;;;;;;5067061;28;20850;-72
2023/07/10 01:36:23;;;;;;;11.18;4.75;;;24.50;1.00;;;;;;5068754;28;20380;-71
2023/07/10 01:38:55;;;;;;;11.40;4.70;;;24.40;1.00;;;;;;5066473;28;20437;-72
2023/07/10 01:41:31;;;;;;;11.38;4.65;;;24.40;1.00;;;;;;5068515;28;20396;-72
2023/07/10 01:43:56;;;;;;;9.77;4.40;;;24.50;1.00;;;;;;5068879;28;20387;-72
2023/07/10 01:46:25;;;;;;;12.00;4.77;;;24.50;1.00;;;;;;5069218;28;20400;-72
2023/07/10 01:48:58;;;;;;;11.52;4.70;;;24.50;1.00;;;;;;5068546;28;20843;-71
2023/07/10 01:51:24;;;;;;;10.13;4.75;;;24.40;1.00;;;;;;5070458;28;20388;-72
2023/07/10 01:53:50;;;;;;;11.85;4.80;;;24.40;1.00;;;;;;5069915;28;20510;-72
2023/07/10 01:56:19;;;;;;;12.32;5.43;;;24.40;1.00;;;;;;5069707;28;20410;-71
2023/07/10 01:58:45;;;;;;;10.20;4.50;;;24.30;1.00;;;;;;5066084;28;20934;-71
2023/07/10 02:01:10;;;;;;;9.82;4.40;;;24.20;1.00;;;;;;5069140;28;20388;-73
2023/07/10 02:03:36;;;;;;;10.30;4.93;;;24.00;1.00;;;;;;5071172;28;21006;-72
2023/07/10 02:06:02;;;;;;;11.52;4.80;;;24.00;1.00;;;;;;5079037;28;20383;-72
2023/07/10 02:08:28;;;;;;;9.80;4.60;;;23.80;43.50;;;;;;5079288;28;20752;-72
2023/07/10 02:10:53;;;;;;;11.07;4.97;;;23.70;99.90;;;;;;5072164;28;20391;-72
2023/07/10 02:13:19;;;;;;;10.77;5.20;;;23.60;99.90;;;;;;5069593;28;20438;-72
2023/07/10 02:15:45;;;;;;;10.00;4.53;;;23.60;99.90;;;;;;5071943;28;20426;-73
2023/07/10 02:18:10;;;;;;;11.73;4.60;;;23.70;99.90;;;;;;5073678;28;20430;-71
2023/07/10 02:20:36;;;;;;;11.07;4.80;;;23.70;99.90;;;;;;5079218;28;20891;-72
2023/07/10 02:23:01;;;;;;;10.03;4.90;;;23.70;99.90;;;;;;5080843;28;20387;-72
2023/07/10 02:25:27;;;;;;;11.70;5.20;;;23.80;99.90;;;;;;5081006;28;20943;-71
2023/07/10 02:27:52;;;;;;;11.70;5.50;;;23.90;99.90;;;;;;5079678;28;20752;-72
2023/07/10 02:30:18;;;;;;;9.90;4.20;;;23.90;99.90;;;;;;5079658;28;20486;-72
2023/07/10 02:32:44;;;;;;;11.13;4.80;;;23.90;99.90;;;;;;5077222;28;20383;-72
2023/07/10 02:35:10;;;;;;;10.05;4.72;;;23.80;99.90;;;;;;5077683;28;20418;-72
2023/07/10 02:37:35;;;;;;;10.43;4.10;;;23.70;99.90;;;;;;5077249;28;20427;-72
2023/07/10 02:40:01;;;;;;;10.63;5.15;;;23.70;99.90;;;;;;5075883;28;20590;-72
2023/07/10 02:42:27;;;;;;;11.63;4.93;;;23.80;99.90;;;;;;5057530;28;20771;-72
2023/07/10 02:44:53;;;;;;;12.60;5.03;;;23.90;57.40;;;;;;5076137;28;20442;-72
2023/07/10 02:47:18;;;;;;;11.88;4.80;;;24.00;7.60;;;;;;5075118;28;20392;-72
2023/07/10 02:49:44;;;;;;;13.30;4.50;;;24.20;1.00;;;;;;5075200;28;20392;-72
2023/07/10 02:52:09;;;;;;;10.63;4.53;;;24.30;1.00;;;;;;5074935;28;20430;-74
2023/07/10 02:54:35;;;;;;;10.50;4.57;;;24.40;1.00;;;;;;5075253;28;20415;-72
2023/07/10 02:57:00;;;;;;;9.70;4.37;;;24.60;1.00;;;;;;5074742;28;20758;-73
2023/07/10 02:59:27;;;;;;;10.02;4.38;;;24.70;1.00;;;;;;5074823;28;20394;-72
2023/07/10 03:01:53;;;;;;;12.45;4.45;;;24.80;1.00;;;;;;5074185;28;20761;-72
2023/07/10 03:04:18;;;;;;;11.73;4.50;;;24.90;1.00;;;;;;5074743;28;20392;-71
2023/07/10 03:06:47;;;;;;;10.70;4.80;;;25.00;1.00;;;;;;5074067;28;20852;-71
2023/07/10 03:09:12;;;;;;;11.43;4.40;;;25.10;1.00;;;;;;5073578;28;20466;-71
2023/07/10 03:11:38;;;;;;;11.32;4.60;;;25.10;1.00;;;;;;5074640;28;20386;-71
2023/07/10 03:14:03;;;;;;;9.60;4.40;;;25.00;1.00;;;;;;5073745;28;20431;-72
2023/07/10 03:16:29;;;;;;;9.27;4.60;;;24.80;1.00;;;;;;5073644;28;20503;-72
2023/07/10 03:18:54;;;;;;;12.33;4.57;;;24.50;1.00;;;;;;5074056;28;20880;-71
2023/07/10 03:21:20;;;;;;;11.50;5.23;;;24.50;1.00;;;;;;5073898;28;20445;-71
2023/07/10 03:23:48;;;;;;;10.67;4.10;;;24.50;1.00;;;;;;5073791;28;20383;-71
2023/07/10 03:26:13;;;;;;;10.90;4.90;;;24.40;1.00;;;;;;5074118;28;20892;-71
2023/07/10 03:28:39;;;;;;;11.87;4.63;;;24.30;1.00;;;;;;5074686;28;20430;-71
2023/07/10 03:31:05;;;;;;;11.00;4.73;;;24.20;1.00;;;;;;5070068;28;20488;-71
2023/07/10 03:33:30;;;;;;;10.27;4.70;;;24.20;1.00;;;;;;5071211;28;20462;-71
2023/07/10 03:36:05;;;;;;;12.45;4.53;;;24.20;1.00;;;;;;5070782;28;20467;-70
2023/07/10 03:38:31;;;;;;;11.10;4.82;;;24.30;1.00;;;;;;5068986;28;20380;-71
2023/07/10 03:40:58;;;;;;;11.52;4.63;;;24.40;1.00;;;;;;5070989;28;20856;-71
2023/07/10 03:43:25;;;;;;;11.10;4.97;;;24.50;1.00;;;;;;5070637;28;20391;-71
2023/07/10 03:45:51;;;;;;;11.40;5.40;;;24.40;1.00;;;;;;5070229;28;20800;-71
2023/07/10 03:48:16;;;;;;;13.00;4.90;;;24.40;1.00;;;;;;5070638;28;20435;-71
2023/07/10 03:50:42;;;;;;;11.90;5.20;;;24.30;1.00;;;;;;5070566;28;20446;-71
2023/07/10 03:53:08;;;;;;;15.03;5.10;;;24.30;1.00;;;;;;5071078;28;20388;-72
2023/07/10 03:55:34;;;;;;;10.20;4.43;;;24.40;1.00;;;;;;5071384;28;20411;-71
2023/07/10 03:57:59;;;;;;;13.45;4.97;;;24.50;1.00;;;;;;5070449;28;20388;-71
2023/07/10 04:00:25;;;;;;;10.45;5.15;;;24.50;1.00;;;;;;5070271;28;20380;-72
2023/07/10 04:02:52;;;;;;;11.75;4.50;;;24.40;1.00;;;;;;5070122;28;20443;-72
2023/07/10 04:05:18;;;;;;;10.75;4.80;;;24.50;1.00;;;;;;5070648;28;20488;-71
2023/07/10 04:07:43;;;;;;;11.43;4.97;;;24.50;1.00;;;;;;5069966;28;20956;-71
2023/07/10 04:10:09;;;;;;;11.70;4.50;;;24.60;1.00;;;;;;5070408;28;20380;-71
2023/07/10 04:12:35;;;;;;;12.43;4.37;;;24.70;1.00;;;;;;5070840;28;20430;-71
2023/07/10 04:15:00;;;;;;;10.67;4.53;;;24.70;1.00;;;;;;5069989;28;20463;-71
2023/07/10 04:17:26;;;;;;;10.00;4.57;;;24.80;1.00;;;;;;5067731;28;20392;-71
2023/07/10 04:19:52;;;;;;;10.13;5.00;;;25.00;1.00;;;;;;5070152;28;20880;-71
2023/07/10 04:22:17;;;;;;;12.07;5.03;;;25.10;1.00;;;;;;5069942;28;20394;-71
2023/07/10 04:24:43;;;;;;;10.02;4.40;;;25.20;1.00;;;;;;5069996;28;20483;-71
2023/07/10 04:27:08;;;;;;;12.97;4.60;;;25.00;1.00;;;;;;5070424;28;20384;-71
2023/07/10 04:29:35;;;;;;;11.13;4.80;;;25.20;1.00;;;;;;5070490;28;20798;-72
2023/07/10 04:32:00;;;;;;;9.75;4.15;;;25.20;1.00;;;;;;5070785;28;20379;-71
2023/07/10 04:34:26;;;;;;;12.15;4.97;;;25.30;1.00;;;;;;5071247;28;20607;-72
2023/07/10 04:36:51;;;;;;;13.65;4.70;;;25.40;1.00;;;;;;5070705;28;20391;-72
2023/07/10 04:39:17;;;;;;;11.40;4.57;;;25.50;1.00;;;;;;5069247;28;20400;-72
2023/07/10 04:41:44;;;;;;;12.53;4.43;;;25.50;1.00;;;;;;5064643;28;20473;-72
2023/07/10 04:44:10;;;;;;;10.93;4.93;;;25.60;1.00;;;;;;5066984;28;20471;-71
2023/07/10 04:46:35;;;;;;;9.80;4.13;;;25.60;1.00;;;;;;5070533;28;20943;-71
2023/07/10 04:49:01;;;;;;;14.43;4.60;;;25.40;1.00;;;;;;5069794;28;20818;-72
2023/07/10 04:51:27;;;;;;;14.60;5.10;;;25.30;1.00;;;;;;5070079;28;20543;-71
2023/07/10 04:53:52;;;;;;;10.10;4.57;;;25.30;1.00;;;;;;5070225;28;20424;-72
2023/07/10 04:56:19;;;;;;;9.40;4.17;;;25.20;1.00;;;;;;5069779;28;20864;-72
2023/07/10 04:58:51;;;;;;;10.10;4.60;;;25.20;1.00;;;;;;5069000;28;20400;-72
2023/07/10 05:01:18;;;;;;;8.93;3.93;;;25.20;1.00;;;;;;5069670;28;20394;-71
2023/07/10 05:03:44;;;;;;;8.90;4.03;;;25.20;1.00;;;;;;5069635;28;20392;-71
2023/07/10 05:06:11;;;;;;;11.83;5.40;;;25.40;1.00;;;;;;5069918;28;20399;-73
2023/07/10 10:48:51;;;;;;;9.20;4.47;;;33.90;99.90;;;;;;5060749;28;20415;-71
2023/07/10 10:51:29;;;;;;;12.68;5.15;;;34.30;99.90;;;;;;5052334;28;20408;-71
2023/07/10 10:54:10;;;;;;;11.07;4.45;;;34.40;99.90;;;;;;5052161;28;20413;-71
2023/07/10 10:56:43;;;;;;;11.13;4.80;;;34.70;99.90;;;;;;5052235;28;20396;-71
2023/07/10 10:59:24;;;;;;;9.88;4.70;;;34.60;99.90;;;;;;5052063;28;20481;-71
2023/07/10 11:01:59;;;;;;;8.80;4.03;;;34.50;99.90;;;;;;5051547;28;20404;-71
2023/07/10 11:04:43;;;;;;;7.70;3.95;;;34.50;99.90;;;;;;5051291;28;20912;-71
2023/07/10 11:07:12;;;;;;;10.90;4.40;;;34.70;99.90;;;;;;5051264;28;20416;-71
2023/07/10 11:09:52;;;;;;;9.60;4.30;;;34.60;99.90;;;;;;5034760;28;20390;-71
2023/07/10 11:12:28;;;;;;;10.23;4.67;;;34.30;99.90;;;;;;5052336;28;20464;-71
2023/07/10 11:14:59;;;;;;;12.40;4.83;;;34.30;99.90;;;;;;5051678;28;20417;-71
2023/07/10 11:17:25;;;;;;;13.73;4.20;;;34.40;99.90;;;;;;5051271;28;20388;-71
2023/07/10 11:19:52;;;;;;;8.50;4.10;;;34.10;99.90;;;;;;5051749;28;20481;-71
2023/07/10 11:22:20;;;;;;;8.00;3.55;;;34.50;99.90;;;;;;5051286;28;20707;-70
2023/07/10 11:24:50;;;;;;;9.27;4.80;;;34.40;99.90;;;;;;5053469;28;20469;-71
2023/07/10 11:27:31;;;;;;;10.02;3.95;;;34.60;99.90;;;;;;5051077;28;20382;-71
2023/07/10 11:30:07;;;;;;;9.32;4.50;;;34.40;99.90;;;;;;5047628;28;20415;-71
2023/07/10 11:32:53;;;;;;;10.23;4.70;;;34.70;99.90;;;;;;5047084;28;20743;-71
2023/07/10 11:35:20;;;;;;;9.68;4.80;;;34.60;99.90;;;;;;5031535;28;20434;-71
2023/07/10 11:37:49;;;;;;;9.02;4.30;;;34.90;99.90;;;;;;5043957;28;20393;-71
2023/07/10 11:40:23;;;;;;;8.45;3.85;;;35.20;99.90;;;;;;5050609;28;20390;-72
2023/07/10 11:42:50;;;;;;;8.43;4.03;;;35.60;99.90;;;;;;5057765;28;20392;-71
2023/07/10 11:45:16;;;;;;;11.90;4.30;;;35.00;99.90;;;;;;5070639;28;20387;-71
2023/07/10 11:47:46;;;;;;;9.57;3.70;;;35.20;99.90;;;;;;5083174;28;20429;-71
2023/07/10 11:50:15;;;;;;;8.60;4.30;;;35.20;99.90;;;;;;5073383;28;20453;-71
2023/07/10 11:52:42;;;;;;;10.52;4.25;;;34.60;99.90;;;;;;5053352;28;20411;-71
2023/07/10 11:55:11;;;;;;;9.93;4.35;;;34.40;99.90;;;;;;5065001;28;20405;-70
2023/07/10 11:57:37;;;;;;;10.15;4.63;;;33.90;99.90;;;;;;5069238;28;20383;-71
2023/07/10 12:00:25;;;;;;;10.32;4.40;;;33.80;99.90;;;;;;5090150;28;20785;-70
2023/07/10 12:02:54;;;;;;;12.32;5.50;;;34.10;99.90;;;;;;5074930;28;20397;-72
2023/07/10 12:05:31;;;;;;;9.15;3.92;;;34.30;99.90;;;;;;5050607;28;20423;-71
2023/07/10 12:08:13;;;;;;;11.65;5.18;;;34.00;99.90;;;;;;5050314;28;20424;-71
2023/07/10 12:10:48;;;;;;;13.13;5.20;;;34.20;99.90;;;;;;5051283;28;20424;-71
2023/07/10 12:13:36;;;;;;;9.15;4.63;;;34.10;99.90;;;;;;5050652;28;20386;-71
2023/07/10 12:16:10;;;;;;;10.63;5.03;;;34.30;99.90;;;;;;5050020;28;20852;-71
2023/07/10 12:18:38;;;;;;;10.20;4.60;;;34.30;99.90;;;;;;5049984;28;20385;-72
2023/07/10 12:21:12;;;;;;;9.13;4.47;;;34.10;99.90;;;;;;5059444;28;20746;-72
2023/07/10 12:23:37;;;;;;;9.75;4.72;;;33.90;99.90;;;;;;5067099;28;20751;-71
2023/07/10 12:26:05;;;;;;;9.35;4.00;;;33.90;99.90;;;;;;5072150;28;20392;-72
2023/07/10 12:28:30;;;;;;;10.75;4.10;;;34.00;99.90;;;;;;5075892;28;20376;-72
2023/07/10 12:30:58;;;;;;;10.37;4.40;;;34.30;99.90;;;;;;5055960;28;20773;-71
2023/07/10 12:33:32;;;;;;;13.93;4.90;;;34.50;99.90;;;;;;5049778;28;20874;-71
2023/07/10 12:36:19;;;;;;;10.10;4.63;;;34.40;99.90;;;;;;5049586;28;20417;-71
2023/07/10 12:38:46;;;;;;;9.53;4.93;;;34.40;99.90;;;;;;5069772;28;20414;-71
2023/07/10 12:41:11;;;;;;;9.30;4.70;;;34.70;99.90;;;;;;5075295;28;20439;-71
2023/07/10 12:43:37;;;;;;;13.13;4.97;;;34.80;99.90;;;;;;5090236;28;20382;-71
2023/07/10 12:46:14;;;;;;;9.20;4.60;;;34.50;99.90;;;;;;5082561;28;20412;-71
2023/07/10 12:48:40;;;;;;;8.38;3.90;;;34.30;99.90;;;;;;5067579;28;20767;-71
2023/07/10 12:51:07;;;;;;;9.82;4.60;;;34.50;99.90;;;;;;5051876;28;20392;-71
2023/07/10 12:53:37;;;;;;;10.05;4.32;;;34.10;99.90;;;;;;5064873;28;20403;-72
2023/07/10 12:56:19;;;;;;;9.27;4.13;;;33.70;99.90;;;;;;5074465;28;20862;-71
2023/07/10 12:58:47;;;;;;;9.35;4.00;;;33.90;99.90;;;;;;5088906;28;20881;-71
2023/07/10 13:01:52;;;;;;;8.32;4.10;;;34.20;99.90;;;;;;5069433;28;20868;-71
2023/07/10 13:04:21;;;;;;;8.45;4.07;;;34.40;99.90;;;;;;5053150;28;20396;-72
2023/07/10 13:07:21;;;;;;;9.57;4.22;;;34.60;99.90;;;;;;5070891;28;20885;-72
2023/07/10 13:09:52;;;;;;;9.65;4.22;;;34.30;99.90;;;;;;5058388;28;20482;-72
2023/07/10 13:12:30;;;;;;;9.07;4.03;;;33.90;99.90;;;;;;5065807;28;20399;-72
2023/07/10 13:14:59;;;;;;;9.33;4.10;;;33.80;99.90;;;;;;5057033;28;20502;-71
2023/07/10 13:17:27;;;;;;;9.10;3.97;;;33.90;99.90;;;;;;5059703;28;20413;-72
2023/07/10 13:19:55;;;;;;;9.32;4.40;;;33.90;99.90;;;;;;5070836;28;20414;-71
2023/07/10 13:22:20;;;;;;;9.20;4.20;;;33.90;99.90;;;;;;5066379;28;20430;-71
2023/07/10 13:24:46;;;;;;;10.30;4.40;;;34.00;99.90;;;;;;5057439;28;20413;-71
2023/07/10 13:27:19;;;;;;;8.63;3.80;;;33.80;99.90;;;;;;5068465;28;20456;-71
2023/07/10 13:29:45;;;;;;;9.33;4.87;;;34.00;99.90;;;;;;5062595;28;20407;-71
2023/07/10 13:32:11;;;;;;;8.87;4.20;;;34.00;99.90;;;;;;5057928;28;20405;-71
2023/07/10 13:34:37;;;;;;;11.30;4.22;;;33.80;99.90;;;;;;5055127;28;20514;-72
2023/07/10 13:37:03;;;;;;;10.40;3.90;;;34.10;99.90;;;;;;5068629;28;20462;-72
2023/07/10 13:39:28;;;;;;;8.57;4.18;;;33.90;99.90;;;;;;5077887;28;20962;-72
2023/07/10 13:41:55;;;;;;;8.63;3.90;;;33.80;99.90;;;;;;5055892;28;20888;-71
2023/07/10 13:44:21;;;;;;;8.60;4.50;;;33.90;99.90;;;;;;5068145;28;20809;-72
2023/07/10 13:46:46;;;;;;;9.40;4.77;;;34.10;99.90;;;;;;5047472;28;20417;-73
2023/07/10 13:49:13;;;;;;;9.10;4.28;;;34.20;99.90;;;;;;5067261;28;20408;-72
2023/07/10 13:51:39;;;;;;;8.57;3.92;;;34.50;99.90;;;;;;5065946;28;20938;-73
2023/07/10 13:54:05;;;;;;;9.43;4.00;;;34.30;99.90;;;;;;5066096;28;20933;-72
2023/07/10 13:56:37;;;;;;;8.27;4.00;;;33.70;99.90;;;;;;5069577;28;20407;-71
2023/07/10 13:59:03;;;;;;;8.70;3.70;;;34.00;99.90;;;;;;5058309;28;20885;-70
2023/07/10 14:01:32;;;;;;;8.93;4.20;;;34.10;99.90;;;;;;5054911;28;20437;-72
2023/07/10 14:03:58;;;;;;;9.23;3.80;;;34.10;99.90;;;;;;5066896;28;20395;-72
2023/07/10 14:06:23;;;;;;;8.50;3.83;;;33.90;99.90;;;;;;5061592;28;20761;-73
2023/07/10 14:08:54;;;;;;;9.83;3.90;;;33.70;99.90;;;;;;5065385;28;20798;-73
2023/07/10 14:11:20;;;;;;;8.02;3.92;;;33.70;99.90;;;;;;5061596;28;20912;-73
2023/07/10 14:13:49;;;;;;;10.43;4.22;;;33.60;99.90;;;;;;5063003;28;20736;-72
2023/07/10 14:16:18;;;;;;;9.05;4.20;;;33.60;99.90;;;;;;5058172;28;20469;-76
2023/07/10 14:18:43;;;;;;;10.20;4.18;;;33.60;99.90;;;;;;5059023;28;21715;-77
2023/07/10 14:21:11;;;;;;;9.65;4.35;;;33.50;99.90;;;;;;5058239;28;20440;-76
2023/07/10 14:23:37;;;;;;;9.23;3.97;;;33.50;99.90;;;;;;5055688;28;20421;-76
2023/07/10 14:26:10;;;;;;;8.50;4.00;;;33.40;99.90;;;;;;5058581;28;20404;-76
2023/07/10 14:28:36;;;;;;;8.55;4.05;;;33.60;99.90;;;;;;5050697;28;20439;-76
2023/07/10 14:31:01;;;;;;;8.80;4.13;;;33.60;99.90;;;;;;5036379;28;20791;-76
2023/07/10 14:33:27;;;;;;;8.65;4.05;;;33.60;99.90;;;;;;5052934;28;20433;-76
2023/07/10 14:35:52;;;;;;;7.93;3.60;;;33.60;99.90;;;;;;5063833;28;20419;-75
2023/07/10 14:38:25;;;;;;;8.70;4.20;;;33.90;99.90;;;;;;5067188;28;20400;-75
2023/07/10 14:40:53;;;;;;;10.90;4.13;;;33.50;99.90;;;;;;5087511;28;20394;-75
2023/07/10 14:43:19;;;;;;;12.15;4.03;;;33.30;99.90;;;;;;5088791;28;20390;-75
2023/07/10 14:45:51;;;;;;;8.93;3.90;;;33.20;99.90;;;;;;5083231;28;20387;-76
2023/07/10 14:48:17;;;;;;;8.63;3.85;;;33.30;99.90;;;;;;5061698;28;20480;-75
2023/07/10 14:50:45;;;;;;;9.98;4.10;;;32.90;99.90;;;;;;5049227;28;20480;-74
2023/07/10 14:53:13;;;;;;;8.90;3.97;;;33.00;99.90;;;;;;5055365;28;20410;-75
2023/07/10 14:55:39;;;;;;;12.20;4.10;;;33.10;99.90;;;;;;5057016;28;20787;-75
2023/07/10 14:58:11;;;;;;;10.60;4.30;;;33.20;99.90;;;;;;5057007;28;20415;-75
2023/07/10 15:00:37;;;;;;;9.95;4.03;;;33.50;99.90;;;;;;5058884;28;20399;-75
2023/07/10 15:03:03;;;;;;;8.48;3.83;;;33.60;99.90;;;;;;5065836;28;20483;-75
2023/07/10 15:05:28;;;;;;;9.05;3.65;;;33.30;99.90;;;;;;5056170;28;20396;-75
2023/07/10 15:07:56;;;;;;;8.68;4.10;;;33.10;99.90;;;;;;5053230;28;20396;-75
2023/07/10 15:10:25;;;;;;;8.10;3.80;;;33.00;99.90;;;;;;5058628;28;20404;-75
2023/07/10 15:12:51;;;;;;;9.55;3.63;;;33.10;99.90;;;;;;5068080;28;20455;-75
2023/07/10 15:15:18;;;;;;;9.45;3.90;;;32.60;99.90;;;;;;5066852;28;20467;-77
2023/07/10 15:17:45;;;;;;;8.48;4.25;;;32.60;99.90;;;;;;5054568;28;20460;-76
2023/07/10 15:20:19;;;;;;;9.52;3.88;;;32.50;99.90;;;;;;5063958;28;20411;-75
2023/07/10 15:22:45;;;;;;;9.23;4.00;;;32.70;99.90;;;;;;5057720;28;20384;-75
2023/07/10 15:25:21;;;;;;;7.80;3.30;;;32.60;99.90;;;;;;5060511;28;20442;-76
2023/07/10 15:27:47;;;;;;;9.27;4.30;;;32.10;99.90;;;;;;5061473;28;20872;-76
2023/07/10 15:30:14;;;;;;;8.65;3.45;;;31.90;99.90;;;;;;5060655;28;21604;-75
2023/07/10 15:32:43;;;;;;;10.48;3.60;;;31.90;99.90;;;;;;5044814;28;20402;-76
2023/07/10 15:35:17;;;;;;;13.13;3.90;;;32.10;99.90;;;;;;5058831;28;20412;-75
2023/07/10 15:37:43;;;;;;;8.40;3.47;;;32.30;99.90;;;;;;5064147;28;20486;-75
2023/07/10 15:40:28;;;;;;;8.75;3.53;;;32.30;99.90;;;;;;5069717;28;20395;-77
2023/07/10 15:42:57;;;;;;;7.40;2.80;;;32.40;99.90;;;;;;5051954;28;20405;-76
2023/07/10 15:45:23;;;;;;;9.05;3.40;;;32.70;99.90;;;;;;5071340;28;20402;-77
2023/07/10 15:47:52;;;;;;;11.48;4.10;;;32.70;99.90;;;;;;5065288;28;20464;-76
2023/07/10 15:50:18;;;;;;;9.10;3.50;;;32.70;99.90;;;;;;5060602;28;20544;-77
2023/07/10 15:52:47;;;;;;;10.25;4.03;;;32.50;99.90;;;;;;5062070;28;20428;-78
2023/07/10 15:55:17;;;;;;;9.20;3.42;;;32.30;99.90;;;;;;5062236;28;20426;-78
2023/07/10 15:57:44;;;;;;;7.57;3.17;;;32.40;99.90;;;;;;5068304;28;20392;-78
2023/07/10 16:00:21;;;;;;;10.38;4.00;;;32.20;99.90;;;;;;5052136;28;20399;-77
2023/07/10 16:02:48;;;;;;;8.07;3.67;;;32.10;99.90;;;;;;5067808;28;20731;-76
2023/07/10 16:05:18;;;;;;;8.10;3.30;;;32.10;99.90;;;;;;5052267;28;20388;-77
2023/07/10 16:07:44;;;;;;;8.90;3.80;;;32.00;99.90;;;;;;5066687;28;20930;-76
2023/07/10 16:10:13;;;;;;;8.10;3.47;;;31.80;99.90;;;;;;5071089;28;20404;-77
2023/07/10 16:12:40;;;;;;;7.28;3.30;;;31.90;99.90;;;;;;5068284;28;20872;-78
2023/07/10 16:15:13;;;;;;;9.73;3.90;;;31.80;99.90;;;;;;5075626;28;20503;-77
2023/07/10 16:17:38;;;;;;;8.40;3.50;;;31.90;99.90;;;;;;5070513;28;20899;-75
2023/07/10 16:20:04;;;;;;;8.50;3.42;;;31.90;99.90;;;;;;5070259;28;20447;-76
2023/07/10 16:22:30;;;;;;;9.00;3.80;;;31.90;99.90;;;;;;5069180;28;20781;-77
2023/07/10 16:24:55;;;;;;;8.82;3.38;;;31.90;99.90;;;;;;5064057;28;20466;-77
2023/07/10 16:27:21;;;;;;;8.50;3.40;;;31.90;99.90;;;;;;5068561;28;20417;-76
2023/07/10 16:29:46;;;;;;;8.30;3.20;;;31.80;99.90;;;;;;5061982;28;20400;-76
2023/07/10 16:32:16;;;;;;;8.53;3.80;;;31.70;99.90;;;;;;5069131;28;20402;-77
2023/07/10 16:34:42;;;;;;;9.40;2.97;;;31.70;99.90;;;;;;5070301;28;20482;-77
2023/07/10 16:37:14;;;;;;;11.25;3.83;;;31.70;99.90;;;;;;5069809;28;20964;-77
2023/07/10 16:39:40;;;;;;;9.07;3.50;;;31.70;99.90;;;;;;5043051;28;20494;-76
2023/07/10 16:42:13;;;;;;;8.30;3.10;;;31.50;99.90;;;;;;5069583;28;20398;-77
2023/07/10 16:44:39;;;;;;;9.88;3.47;;;31.60;99.90;;;;;;5068229;28;20961;-77
2023/07/10 16:47:31;;;;;;;8.75;3.20;;;31.70;99.90;;;;;;5063672;28;20409;-77
2023/07/10 16:49:56;;;;;;;8.38;3.72;;;31.80;99.90;;;;;;5050569;28;20478;-76
2023/07/10 16:52:22;;;;;;;9.97;3.50;;;31.60;99.90;;;;;;5064041;28;20396;-76
2023/07/10 16:54:49;;;;;;;9.07;3.33;;;31.60;99.90;;;;;;5036203;28;20429;-77
2023/07/10 16:57:16;;;;;;;9.43;3.77;;;31.50;99.90;;;;;;5038215;28;20463;-77
2023/07/10 16:59:43;;;;;;;8.77;3.00;;;31.30;99.90;;;;;;5065627;28;20472;-77
2023/07/10 17:02:22;;;;;;;8.35;3.00;;;31.20;99.90;;;;;;5049848;28;20950;-77
2023/07/10 17:04:48;;;;;;;8.10;2.80;;;31.20;99.90;;;;;;5049376;28;20381;-77
2023/07/10 17:07:14;;;;;;;7.45;3.00;;;31.20;99.90;;;;;;5064603;28;20434;-76
2023/07/10 17:09:41;;;;;;;7.67;2.90;;;31.00;99.90;;;;;;5058054;28;20435;-77
2023/07/10 17:12:09;;;;;;;8.95;3.40;;;31.00;99.90;;;;;;5042708;28;20409;-78
2023/07/10 17:14:36;;;;;;;9.50;3.10;;;30.90;99.90;;;;;;5063350;28;20403;-77
2023/07/10 17:17:16;;;;;;;8.68;3.20;;;31.00;99.90;;;;;;5055852;28;20404;-76
2023/07/10 17:19:42;;;;;;;8.50;3.30;;;31.10;99.90;;;;;;5054625;28;20407;-77
2023/07/10 17:22:28;;;;;;;8.53;2.80;;;31.20;99.90;;;;;;5058527;28;20394;-78
2023/07/10 17:24:55;;;;;;;6.82;2.55;;;31.00;99.90;;;;;;5058322;28;20473;-76
2023/07/10 17:27:24;;;;;;;7.53;3.17;;;30.90;99.90;;;;;;5056480;28;20418;-78
2023/07/10 17:29:49;;;;;;;9.98;3.60;;;30.70;99.90;;;;;;5064657;28;20396;-77
2023/07/10 17:32:16;;;;;;;8.27;3.23;;;30.60;99.90;;;;;;5060527;28;20888;-77
2023/07/10 17:34:42;;;;;;;6.90;2.58;;;30.50;99.90;;;;;;5057863;28;20974;-77
2023/07/10 17:37:12;;;;;;;8.13;3.00;;;30.30;99.90;;;;;;5064342;28;20440;-76
2023/07/10 17:39:38;;;;;;;7.75;2.90;;;30.30;99.90;;;;;;5050604;28;20433;-76
2023/07/10 17:42:04;;;;;;;7.80;3.00;;;30.20;99.90;;;;;;5061510;28;20418;-77
2023/07/10 17:44:33;;;;;;;7.90;3.15;;;30.30;99.90;;;;;;5040615;28;20399;-78
2023/07/10 17:46:59;;;;;;;8.93;2.90;;;30.30;99.90;;;;;;5053779;28;20979;-78
2023/07/10 17:49:25;;;;;;;8.90;3.20;;;30.40;99.90;;;;;;5056390;28;20400;-79
2023/07/10 17:51:51;;;;;;;9.65;3.10;;;30.50;99.90;;;;;;5052353;28;20424;-77
2023/07/10 17:54:24;;;;;;;7.83;2.40;;;30.30;99.90;;;;;;5056376;28;20368;-76
2023/07/10 17:56:50;;;;;;;8.80;2.75;;;30.30;99.90;;;;;;5051770;28;20424;-77
2023/07/10 17:59:16;;;;;;;8.47;3.30;;;30.30;99.90;;;;;;5046540;28;20496;-76
2023/07/10 18:01:42;;;;;;;7.03;2.80;;;30.20;99.90;;;;;;5034273;28;20475;-78
2023/07/10 18:04:14;;;;;;;7.90;3.00;;;30.20;99.90;;;;;;5041354;28;20771;-78
2023/07/10 18:06:41;;;;;;;7.32;2.80;;;30.20;99.90;;;;;;5028937;28;20418;-77
2023/07/10 18:09:24;;;;;;;8.13;2.78;;;30.10;99.90;;;;;;5031704;28;20613;-78
2023/07/10 18:11:54;;;;;;;7.85;2.63;;;30.00;99.90;;;;;;5041385;28;20438;-77
2023/07/10 18:14:21;;;;;;;7.83;2.63;;;30.20;99.90;;;;;;5038930;28;20447;-77
2023/07/10 18:16:47;;;;;;;8.00;2.80;;;30.00;99.90;;;;;;5036711;28;20487;-77
2023/07/10 18:19:18;;;;;;;7.78;2.88;;;30.00;99.90;;;;;;5029027;28;20460;-76
2023/07/10 18:21:52;;;;;;;7.60;2.70;;;30.10;99.90;;;;;;5029137;28;20375;-77
2023/07/10 18:24:22;;;;;;;7.82;2.63;;;30.10;99.90;;;;;;5029887;28;20441;-78
2023/07/10 18:26:48;;;;;;;7.10;2.50;;;30.00;99.90;;;;;;5031545;28;20412;-76
2023/07/10 18:29:14;;;;;;;7.70;2.58;;;30.00;99.90;;;;;;5046277;28;20474;-77
2023/07/10 18:31:42;;;;;;;7.63;2.83;;;30.10;99.90;;;;;;5049399;28;20870;-78
2023/07/10 18:34:15;;;;;;;7.78;3.00;;;30.10;99.90;;;;;;5047709;28;20526;-77